Time;durP1;ratioP1;P1;durP2;ratioP2;P2;SDS_P1;SDS_P2;PMS_P1;PMS_P2;Temp;Humidity;BMP_temperature;BMP_pressure;BME280_temperature;BME280_humidity;BME280_pressure;Samples;Min_cycle;Max_cycle;Signal;HPM_P1;HPM_P2
2021/12/20 00:02:09;;;;;;;43.33;4.40;;;7.60;86.00;;;;;;5072263;28;20389;-80
2021/12/20 00:04:35;;;;;;;38.50;4.28;;;7.70;86.10;;;;;;5079280;28;20075;-81
2021/12/20 00:07:01;;;;;;;42.60;5.55;;;7.70;86.10;;;;;;5063155;28;20158;-80
2021/12/20 00:09:26;;;;;;;25.77;4.43;;;7.70;86.90;;;;;;5060012;28;20096;-81
2021/12/20 00:11:52;;;;;;;42.13;4.38;;;7.70;86.10;;;;;;5050374;28;20087;-81
2021/12/20 00:14:18;;;;;;;23.05;3.58;;;7.60;86.00;;;;;;5053579;28;20066;-81
2021/12/20 00:16:44;;;;;;;37.78;4.43;;;7.60;86.00;;;;;;5032296;28;20132;-81
2021/12/20 00:19:10;;;;;;;41.55;5.32;;;7.60;86.00;;;;;;5035626;28;20105;-80
2021/12/20 00:21:36;;;;;;;41.58;4.63;;;7.60;86.00;;;;;;5053628;28;20067;-75
2021/12/20 00:24:03;;;;;;;41.13;4.85;;;7.60;85.90;;;;;;5053305;28;20521;-76
2021/12/20 00:26:29;;;;;;;39.55;4.25;;;7.60;85.90;;;;;;5037563;28;20082;-76
2021/12/20 00:28:54;;;;;;;30.60;6.88;;;7.50;85.80;;;;;;5049410;28;20143;-76
2021/12/20 00:31:20;;;;;;;38.17;4.53;;;7.50;85.90;;;;;;5036122;28;20067;-76
2021/12/20 00:33:46;;;;;;;44.33;3.88;;;7.40;85.90;;;;;;5051999;28;20150;-76
2021/12/20 00:36:11;;;;;;;28.85;3.75;;;7.40;85.90;;;;;;5051951;28;20074;-76
2021/12/20 00:41:23;;;;;;;33.15;4.22;;;7.30;86.30;;;;;;5053461;28;20551;-76
2021/12/20 00:43:49;;;;;;;48.90;5.05;;;7.30;86.40;;;;;;5035972;28;20693;-76
2021/12/20 00:46:14;;;;;;;35.95;5.40;;;7.30;86.50;;;;;;5053031;28;20064;-76
2021/12/20 00:48:40;;;;;;;37.67;3.80;;;7.30;86.60;;;;;;5053764;28;20138;-76
2021/12/20 00:51:06;;;;;;;31.98;3.70;;;7.30;86.60;;;;;;5055294;28;20043;-76
2021/12/20 00:53:31;;;;;;;33.22;4.50;;;7.20;86.40;;;;;;5035457;28;20590;-80
2021/12/20 00:55:57;;;;;;;32.85;4.20;;;7.10;86.40;;;;;;5057262;28;20098;-80
2021/12/20 00:58:23;;;;;;;26.60;4.28;;;7.20;86.70;;;;;;5058131;28;20069;-80
2021/12/20 01:00:55;;;;;;;35.95;5.85;;;7.20;86.90;;;;;;5052254;28;20080;-80
2021/12/20 01:03:20;;;;;;;40.10;3.63;;;7.10;86.70;;;;;;5050953;28;20063;-81
2021/12/20 01:05:47;;;;;;;43.88;6.20;;;7.10;87.70;;;;;;5035603;28;20056;-76
2021/12/20 01:08:14;;;;;;;32.13;3.75;;;7.10;86.90;;;;;;5037180;28;20062;-80
2021/12/20 01:10:45;;;;;;;37.22;3.70;;;7.10;86.80;;;;;;5056437;28;20091;-80
2021/12/20 01:13:13;;;;;;;32.90;4.10;;;7.10;86.90;;;;;;5052339;28;20049;-81
2021/12/20 01:15:45;;;;;;;40.88;4.70;;;7.10;87.10;;;;;;5051732;28;20067;-76
2021/12/20 01:18:11;;;;;;;30.30;3.50;;;7.10;87.10;;;;;;5052065;28;20062;-76
2021/12/20 01:20:37;;;;;;;35.55;4.43;;;7.10;87.10;;;;;;5052874;28;20108;-76
2021/12/20 01:23:04;;;;;;;38.65;3.60;;;7.10;87.10;;;;;;5051747;28;20049;-81
2021/12/20 01:25:30;;;;;;;33.00;5.32;;;7.10;87.10;;;;;;5050646;28;20104;-80
2021/12/20 01:27:56;;;;;;;41.53;4.63;;;7.10;87.10;;;;;;5049958;28;20511;-80
2021/12/20 01:30:23;;;;;;;35.97;3.45;;;7.10;87.10;;;;;;5028284;28;20086;-80
2021/12/20 01:32:50;;;;;;;49.78;5.13;;;7.10;87.20;;;;;;5044808;28;20069;-76
2021/12/20 01:35:17;;;;;;;43.17;4.05;;;7.10;87.10;;;;;;5054916;28;20067;-80
2021/12/20 01:37:43;;;;;;;41.33;5.60;;;7.10;87.10;;;;;;5051942;28;20727;-80
2021/12/20 01:40:12;;;;;;;24.00;3.90;;;7.20;87.20;;;;;;5034870;28;20052;-80
2021/12/20 01:42:37;;;;;;;33.83;4.07;;;7.20;87.20;;;;;;5051819;28;20109;-80
2021/12/20 01:45:05;;;;;;;36.97;3.83;;;7.10;87.20;;;;;;5051062;28;20060;-80
2021/12/20 01:47:36;;;;;;;40.53;5.28;;;7.10;87.20;;;;;;5052436;28;20434;-80
2021/12/20 01:50:10;;;;;;;26.25;3.80;;;7.10;87.20;;;;;;5066414;28;20078;-80
2021/12/20 01:52:42;;;;;;;41.40;4.70;;;7.20;87.30;;;;;;5052697;28;20084;-80
2021/12/20 01:55:08;;;;;;;;;;;7.10;88.20;;;;;;5051608;28;20075;-80
2021/12/20 01:57:34;;;;;;;36.03;4.97;;;7.10;87.50;;;;;;5037219;28;19949;-80
2021/12/20 02:00:01;;;;;;;37.60;4.32;;;7.10;87.30;;;;;;5052445;28;20055;-80
2021/12/20 02:02:27;;;;;;;27.50;3.90;;;7.20;87.30;;;;;;5048072;28;20081;-80
2021/12/20 02:05:00;;;;;;;36.55;3.95;;;7.20;87.20;;;;;;5051216;28;20108;-75
2021/12/20 02:07:47;;;;;;;47.88;3.95;;;7.10;87.20;;;;;;5049012;28;20525;-76
2021/12/20 02:10:12;;;;;;;32.38;3.92;;;7.10;87.10;;;;;;5052507;28;20138;-76
2021/12/20 02:12:38;;;;;;;28.48;3.13;;;7.10;87.00;;;;;;5033680;28;20154;-76
2021/12/20 02:15:04;;;;;;;26.48;3.28;;;7.10;87.00;;;;;;5048787;28;20082;-80
2021/12/20 02:17:30;;;;;;;33.78;4.45;;;7.10;87.00;;;;;;5052986;28;20059;-81
2021/12/20 02:19:59;;;;;;;26.98;3.45;;;7.10;86.80;;;;;;5049628;28;20405;-80
2021/12/20 02:22:25;;;;;;;24.40;3.20;;;7.10;86.70;;;;;;5064154;28;20087;-80
2021/12/20 02:24:51;;;;;;;20.63;4.10;;;7.10;86.70;;;;;;5052476;28;20064;-80
2021/12/20 02:27:17;;;;;;;27.08;4.28;;;7.20;86.70;;;;;;5051352;28;20104;-80
2021/12/20 02:29:58;;;;;;;28.48;3.97;;;7.20;86.70;;;;;;5049151;28;20159;-80
2021/12/20 02:37:55;;;;;;;43.28;5.80;;;7.20;86.10;;;;;;5048875;28;20074;-75
2021/12/20 02:40:22;;;;;;;24.63;3.00;;;7.30;86.10;;;;;;5048591;28;20154;-80
2021/12/20 02:42:49;;;;;;;25.38;3.80;;;7.30;85.90;;;;;;5048509;28;20114;-80
2021/12/20 02:45:16;;;;;;;23.55;3.10;;;7.30;85.80;;;;;;5037628;28;20077;-80
2021/12/20 02:47:47;;;;;;;24.67;2.95;;;7.30;85.80;;;;;;5034699;28;20529;-80
2021/12/20 02:50:14;;;;;;;31.07;3.23;;;7.30;85.60;;;;;;5050034;28;20773;-76
2021/12/20 02:52:40;;;;;;;31.17;3.75;;;7.30;85.60;;;;;;5049695;28;20323;-76
2021/12/20 02:55:08;;;;;;;21.23;3.47;;;7.30;85.50;;;;;;5049029;28;20093;-76
2021/12/20 02:57:35;;;;;;;19.10;2.45;;;7.30;85.30;;;;;;5050574;28;20085;-76
2021/12/20 03:00:01;;;;;;;20.50;2.75;;;7.30;85.20;;;;;;5052542;28;21563;-76
2021/12/20 03:02:27;;;;;;;17.85;2.88;;;7.30;85.30;;;;;;5062203;28;20059;-75
2021/12/20 03:04:53;;;;;;;23.80;2.42;;;7.30;85.50;;;;;;5040666;28;20147;-80
2021/12/20 03:07:25;;;;;;;30.42;3.03;;;7.30;85.50;;;;;;5050319;28;20061;-76
2021/12/20 03:09:57;;;;;;;32.38;3.10;;;7.30;85.20;;;;;;5050078;28;20056;-76
2021/12/20 03:12:25;;;;;;;19.10;2.87;;;7.30;85.00;;;;;;5047826;28;20086;-75
2021/12/20 03:14:55;;;;;;;27.73;4.68;;;7.30;85.00;;;;;;5063189;28;20260;-76
2021/12/20 03:17:21;;;;;;;23.55;2.53;;;7.30;84.90;;;;;;5049662;28;20586;-80
2021/12/20 03:19:46;;;;;;;25.38;3.63;;;7.30;84.80;;;;;;5048401;28;20108;-81
2021/12/20 03:22:12;;;;;;;25.30;2.78;;;7.30;84.80;;;;;;5057568;28;20102;-80
2021/12/20 03:24:38;;;;;;;24.48;3.65;;;7.30;84.90;;;;;;5036129;28;20160;-80
2021/12/20 03:27:05;;;;;;;19.48;2.40;;;7.30;85.20;;;;;;5051357;28;20060;-80
2021/12/20 03:29:31;;;;;;;19.88;2.20;;;7.30;85.30;;;;;;5048855;28;20061;-80
2021/12/20 03:31:57;;;;;;;28.73;4.47;;;7.30;85.30;;;;;;5048060;28;20094;-80
2021/12/20 03:34:23;;;;;;;17.23;2.13;;;7.30;85.30;;;;;;5027146;28;20067;-76
2021/12/20 03:36:49;;;;;;;22.73;2.65;;;7.40;85.20;;;;;;5047987;28;20137;-76
2021/12/20 03:39:15;;;;;;;19.85;2.65;;;7.30;85.10;;;;;;5049201;28;20084;-80
2021/12/20 03:41:41;;;;;;;21.77;2.92;;;7.30;85.20;;;;;;5031454;28;20509;-80
2021/12/20 03:44:08;;;;;;;11.18;1.88;;;7.30;85.10;;;;;;5055324;28;20061;-80
2021/12/20 03:46:35;;;;;;;28.73;3.35;;;7.30;85.20;;;;;;5053042;28;20079;-80
2021/12/20 03:49:01;;;;;;;32.78;3.80;;;7.40;85.40;;;;;;5041418;28;20069;-76
2021/12/20 03:51:27;;;;;;;22.63;2.97;;;7.40;85.40;;;;;;5052973;28;20482;-81
2021/12/20 03:53:53;;;;;;;23.80;2.80;;;7.30;85.40;;;;;;5049649;28;20077;-80
2021/12/20 03:56:18;;;;;;;13.75;2.45;;;7.30;85.60;;;;;;5035493;28;20175;-80
2021/12/20 03:58:44;;;;;;;22.85;2.58;;;7.30;85.90;;;;;;5033751;28;20072;-80
2021/12/20 04:01:12;;;;;;;18.38;3.17;;;7.40;86.10;;;;;;5067569;28;20065;-81
2021/12/20 04:03:39;;;;;;;15.30;3.15;;;7.40;87.20;;;;;;5049129;28;20062;-80
2021/12/20 04:06:07;;;;;;;18.45;3.58;;;7.30;86.50;;;;;;5053133;28;20580;-80
2021/12/20 04:08:33;;;;;;;19.65;2.63;;;7.40;86.80;;;;;;5054113;28;20106;-75
2021/12/20 04:10:59;;;;;;;17.73;2.42;;;7.30;86.80;;;;;;5053963;28;20064;-75
2021/12/20 04:13:28;;;;;;;20.60;2.50;;;7.30;86.90;;;;;;5051089;28;20060;-76
2021/12/20 04:15:55;;;;;;;24.60;2.63;;;7.30;87.00;;;;;;5046856;28;20102;-76
2021/12/20 04:18:22;;;;;;;21.23;2.72;;;7.30;87.00;;;;;;5065790;28;20049;-76
2021/12/20 04:20:48;;;;;;;25.02;2.80;;;7.30;87.10;;;;;;5052468;28;20073;-80
2021/12/20 04:23:14;;;;;;;19.58;2.20;;;7.30;87.00;;;;;;5054007;28;20043;-75
2021/12/20 04:25:58;;;;;;;19.33;2.42;;;7.30;86.90;;;;;;5051180;28;20166;-76
2021/12/20 04:28:24;;;;;;;16.92;2.65;;;7.20;86.80;;;;;;5031958;28;20080;-75
2021/12/20 04:30:50;;;;;;;23.45;2.10;;;7.20;86.60;;;;;;5044376;28;20609;-80
2021/12/20 04:33:16;;;;;;;13.68;1.50;;;7.20;86.10;;;;;;5048564;28;20079;-80
2021/12/20 04:35:41;;;;;;;18.73;2.00;;;7.10;85.80;;;;;;5050362;28;20085;-80
2021/12/20 04:38:09;;;;;;;17.77;2.17;;;7.20;85.40;;;;;;5047655;28;20071;-80
2021/12/20 04:40:35;;;;;;;20.90;2.20;;;7.10;85.10;;;;;;5067936;28;20058;-75
2021/12/20 04:43:01;;;;;;;15.30;2.67;;;7.10;84.80;;;;;;5053736;28;20063;-75
2021/12/20 04:45:28;;;;;;;20.85;2.25;;;7.10;84.70;;;;;;5049406;28;20145;-75
2021/12/20 04:47:55;;;;;;;15.88;2.25;;;7.10;84.80;;;;;;5086360;28;20166;-75
2021/12/20 04:50:21;;;;;;;15.48;2.22;;;7.10;84.60;;;;;;5051394;28;20128;-75
2021/12/20 04:52:48;;;;;;;19.33;2.22;;;7.10;84.60;;;;;;5050776;28;20068;-74
2021/12/20 04:55:14;;;;;;;24.85;2.55;;;7.10;84.60;;;;;;5053056;28;20587;-74
2021/12/20 04:57:42;;;;;;;17.48;1.80;;;7.10;84.40;;;;;;5052593;28;20090;-73
2021/12/20 05:00:16;;;;;;;17.17;2.08;;;7.10;84.10;;;;;;5053454;28;20061;-73
2021/12/20 05:02:42;;;;;;;15.85;2.00;;;7.00;83.80;;;;;;5038979;28;20069;-78
2021/12/20 05:05:09;;;;;;;15.02;1.70;;;7.00;83.70;;;;;;5052774;28;20054;-78
2021/12/20 05:07:37;;;;;;;17.15;2.05;;;7.00;83.70;;;;;;5051633;28;20064;-79
2021/12/20 05:10:03;;;;;;;12.60;1.63;;;7.00;83.60;;;;;;5037431;28;20055;-79
2021/12/20 05:12:29;;;;;;;22.63;3.25;;;7.00;83.50;;;;;;5052419;28;20144;-80
2021/12/20 05:14:55;;;;;;;21.83;2.25;;;7.00;83.50;;;;;;5053889;28;20205;-80
2021/12/20 05:17:21;;;;;;;19.73;2.53;;;7.00;83.50;;;;;;5052027;28;20062;-79
2021/12/20 05:19:46;;;;;;;22.27;2.00;;;7.00;83.50;;;;;;5052950;28;20582;-79
2021/12/20 05:22:14;;;;;;;15.93;2.10;;;7.00;83.30;;;;;;5048910;28;20056;-75
2021/12/20 05:24:39;;;;;;;10.18;1.65;;;7.00;83.20;;;;;;5033510;28;20074;-75
2021/12/20 05:27:05;;;;;;;23.00;2.58;;;7.00;83.10;;;;;;5053747;28;20061;-75
2021/12/20 05:29:31;;;;;;;11.98;1.92;;;7.00;82.90;;;;;;5045866;28;20423;-74
2021/12/20 05:31:58;;;;;;;15.63;1.60;;;6.90;82.80;;;;;;5046466;28;20064;-78
2021/12/20 05:34:24;;;;;;;17.83;1.40;;;6.90;83.00;;;;;;5036143;28;20152;-75
2021/12/20 05:36:49;;;;;;;16.48;1.35;;;6.90;83.30;;;;;;5052171;28;20219;-75
2021/12/20 05:39:15;;;;;;;17.27;2.17;;;6.90;83.30;;;;;;5052195;28;20509;-75
2021/12/20 05:41:41;;;;;;;11.48;2.20;;;6.90;83.20;;;;;;5054562;28;20096;-79
2021/12/20 05:44:07;;;;;;;17.02;1.85;;;6.90;83.10;;;;;;5054579;28;20057;-77
2021/12/20 05:46:33;;;;;;;18.75;2.53;;;6.90;83.10;;;;;;5050262;28;20152;-79
2021/12/20 05:49:00;;;;;;;12.40;1.45;;;6.90;83.20;;;;;;5048904;28;20071;-79
2021/12/20 05:51:26;;;;;;;14.05;1.98;;;6.90;83.40;;;;;;5048492;28;20051;-78
2021/12/20 05:53:51;;;;;;;17.45;3.30;;;6.90;83.40;;;;;;5057086;28;20120;-80
2021/12/20 05:56:17;;;;;;;11.85;1.65;;;6.80;83.50;;;;;;5039595;28;20178;-80
2021/12/20 05:58:43;;;;;;;16.52;1.77;;;6.90;83.60;;;;;;5049633;28;20744;-80
2021/12/20 06:01:09;;;;;;;15.60;1.80;;;6.90;83.50;;;;;;5049989;28;20590;-80
2021/12/20 06:03:34;;;;;;;20.80;1.95;;;6.90;83.50;;;;;;5053065;28;20128;-79
2021/12/20 06:06:00;;;;;;;16.88;2.25;;;6.80;83.60;;;;;;5051455;28;20079;-79
2021/12/20 06:08:26;;;;;;;15.10;1.98;;;6.90;83.70;;;;;;5052688;28;20069;-79
2021/12/20 06:10:54;;;;;;;13.75;1.70;;;6.90;83.70;;;;;;5050981;28;20055;-79
2021/12/20 06:13:20;;;;;;;13.13;3.08;;;6.90;83.70;;;;;;5032741;28;20077;-79
2021/12/20 06:15:46;;;;;;;14.30;2.35;;;6.90;83.80;;;;;;5053471;28;20076;-79
2021/12/20 06:18:12;;;;;;;16.08;2.55;;;6.90;83.80;;;;;;5042285;28;20163;-79
2021/12/20 06:20:42;;;;;;;9.77;1.63;;;6.80;83.80;;;;;;5035955;28;20224;-74
2021/12/20 06:23:08;;;;;;;20.00;2.40;;;6.90;83.90;;;;;;5051534;28;20064;-75
2021/12/20 06:25:34;;;;;;;15.98;1.35;;;6.90;84.00;;;;;;5051707;28;20155;-80
2021/12/20 06:27:59;;;;;;;9.57;1.52;;;6.90;84.20;;;;;;5051433;28;20151;-79
2021/12/20 06:30:25;;;;;;;23.02;3.35;;;6.90;84.50;;;;;;5034176;28;20143;-79
2021/12/20 06:32:51;;;;;;;17.77;2.95;;;6.90;84.50;;;;;;5050266;28;20122;-75
2021/12/20 06:35:16;;;;;;;19.42;2.70;;;6.90;84.40;;;;;;5017064;28;20083;-74
2021/12/20 06:37:48;;;;;;;15.88;3.03;;;6.90;84.40;;;;;;5033459;28;20056;-75
2021/12/20 06:40:14;;;;;;;19.45;3.35;;;6.90;84.30;;;;;;5043306;28;20070;-74
2021/12/20 06:42:40;;;;;;;19.20;2.65;;;6.90;84.30;;;;;;5048960;28;20047;-75
2021/12/20 06:45:06;;;;;;;15.68;2.63;;;6.90;84.30;;;;;;5044953;28;20061;-79
2021/12/20 06:47:34;;;;;;;16.35;2.30;;;6.90;84.50;;;;;;5051546;28;20050;-79
2021/12/20 06:49:59;;;;;;;13.68;2.42;;;6.80;84.60;;;;;;5047494;28;20064;-74
2021/12/20 06:52:25;;;;;;;15.35;2.67;;;6.80;84.90;;;;;;5037652;28;20063;-75
2021/12/20 06:54:52;;;;;;;18.52;2.70;;;6.80;85.00;;;;;;5051070;28;20060;-74
2021/12/20 06:57:20;;;;;;;22.15;3.33;;;6.80;85.10;;;;;;5042013;28;20095;-75
2021/12/20 06:59:46;;;;;;;16.45;3.55;;;6.80;85.20;;;;;;5049281;28;20132;-74
2021/12/20 07:02:12;;;;;;;17.08;2.42;;;6.80;85.30;;;;;;5049784;28;20514;-75
2021/12/20 07:04:38;;;;;;;21.30;3.67;;;6.80;85.30;;;;;;5031989;28;20060;-75
2021/12/20 07:07:03;;;;;;;16.17;2.85;;;6.70;85.50;;;;;;5047660;28;20156;-75
2021/12/20 07:09:29;;;;;;;24.98;4.22;;;6.70;85.60;;;;;;5045089;28;20102;-79
2021/12/20 07:11:55;;;;;;;23.88;3.65;;;6.70;85.70;;;;;;5049431;28;20510;-75
2021/12/20 07:14:26;;;;;;;13.02;3.03;;;6.70;85.80;;;;;;5046839;28;20114;-79
2021/12/20 07:16:52;;;;;;;20.52;4.40;;;6.70;86.10;;;;;;5071915;28;20580;-79
2021/12/20 07:19:17;;;;;;;17.60;3.25;;;6.60;86.20;;;;;;5045612;28;20154;-79
2021/12/20 07:21:43;;;;;;;16.52;2.83;;;6.60;86.50;;;;;;5047897;28;20057;-79
2021/12/20 07:24:08;;;;;;;22.67;3.72;;;6.60;86.60;;;;;;5036226;28;20059;-79
2021/12/20 07:26:34;;;;;;;20.00;3.20;;;6.50;86.70;;;;;;5044349;28;20062;-79
2021/12/20 07:29:00;;;;;;;15.82;3.80;;;6.50;86.70;;;;;;5045057;28;20520;-79
2021/12/20 07:31:26;;;;;;;16.35;2.83;;;6.50;86.80;;;;;;5043164;28;20517;-74
2021/12/20 07:33:52;;;;;;;16.30;3.55;;;6.50;86.90;;;;;;5054591;28;20525;-78
2021/12/20 07:36:20;;;;;;;11.88;3.90;;;6.40;87.90;;;;;;5044765;28;20509;-78
2021/12/20 07:38:46;;;;;;;19.80;4.47;;;6.40;87.10;;;;;;5051490;28;20089;-78
2021/12/20 07:41:12;;;;;;;19.60;3.60;;;6.30;87.10;;;;;;5042947;28;20104;-79
2021/12/20 07:43:38;;;;;;;21.70;4.57;;;6.30;87.20;;;;;;5037510;28;20059;-79
2021/12/20 07:46:04;;;;;;;14.02;2.80;;;6.30;87.20;;;;;;5056000;28;20103;-78
2021/12/20 07:48:29;;;;;;;13.95;2.97;;;6.20;87.40;;;;;;5038347;28;20437;-79
2021/12/20 07:50:55;;;;;;;16.02;3.83;;;6.20;87.30;;;;;;5050556;28;20070;-75
2021/12/20 07:53:21;;;;;;;14.10;2.83;;;6.10;88.10;;;;;;5065512;28;20069;-75
2021/12/20 07:55:47;;;;;;;17.23;3.13;;;6.10;87.50;;;;;;5053568;28;20089;-75
2021/12/20 07:58:12;;;;;;;9.05;2.65;;;6.10;87.70;;;;;;5032190;28;20101;-75
2021/12/20 08:00:38;;;;;;;9.40;2.58;;;6.00;87.70;;;;;;5036160;28;20062;-78
2021/12/20 08:03:04;;;;;;;14.60;3.13;;;6.00;87.80;;;;;;5055663;28;20476;-79
2021/12/20 08:05:30;;;;;;;15.55;2.90;;;6.00;87.90;;;;;;5055619;28;20098;-75
2021/12/20 08:07:56;;;;;;;11.55;3.83;;;5.90;88.00;;;;;;5051937;28;20081;-78
2021/12/20 08:10:24;;;;;;;15.50;3.55;;;6.00;88.20;;;;;;5048335;28;20075;-75
2021/12/20 08:12:53;;;;;;;12.65;2.97;;;6.00;88.20;;;;;;5045970;28;20163;-75
2021/12/20 08:15:21;;;;;;;11.82;3.42;;;5.90;88.30;;;;;;5047580;28;20107;-75
2021/12/20 08:17:48;;;;;;;15.65;3.20;;;5.90;88.20;;;;;;5032256;28;20082;-75
2021/12/20 08:20:14;;;;;;;12.35;3.10;;;5.90;88.30;;;;;;5045205;28;20076;-79
2021/12/20 08:22:40;;;;;;;15.70;3.10;;;5.90;88.40;;;;;;5047714;28;20055;-78
2021/12/20 08:25:08;;;;;;;13.25;3.58;;;5.90;88.40;;;;;;5046716;28;20115;-79
2021/12/20 08:27:34;;;;;;;13.10;3.35;;;5.90;88.40;;;;;;5040640;28;20054;-79
2021/12/20 08:29:59;;;;;;;18.27;3.33;;;5.90;88.40;;;;;;5050215;28;20580;-79
2021/12/20 08:32:25;;;;;;;13.40;2.95;;;5.90;88.50;;;;;;5053765;28;20090;-79
2021/12/20 08:34:51;;;;;;;10.55;2.75;;;5.80;88.50;;;;;;5052966;28;20100;-78
2021/12/20 08:37:17;;;;;;;12.13;3.20;;;5.80;88.50;;;;;;5051645;28;20110;-74
2021/12/20 08:39:43;;;;;;;15.90;3.72;;;5.80;88.60;;;;;;5060296;28;20103;-79
2021/12/20 08:42:08;;;;;;;19.27;4.68;;;5.80;88.70;;;;;;5054325;28;20559;-79
2021/12/20 08:44:34;;;;;;;18.88;3.70;;;5.70;88.70;;;;;;5042891;28;20078;-74
2021/12/20 08:47:00;;;;;;;22.58;3.58;;;5.80;88.80;;;;;;5051945;28;20712;-74
2021/12/20 08:49:27;;;;;;;18.17;3.65;;;5.70;88.80;;;;;;5047157;28;20117;-74
2021/12/20 08:51:54;;;;;;;21.88;3.25;;;5.80;88.90;;;;;;5052627;28;20075;-74
2021/12/20 08:54:20;;;;;;;13.05;2.95;;;5.70;88.90;;;;;;5034031;28;20590;-74
2021/12/20 08:56:46;;;;;;;12.35;3.05;;;5.70;89.70;;;;;;5056944;28;20249;-74
2021/12/20 08:59:12;;;;;;;11.45;2.58;;;5.70;89.80;;;;;;5050669;28;20142;-74
2021/12/20 09:01:38;;;;;;;14.55;2.55;;;5.60;89.00;;;;;;5035913;28;20186;-74
2021/12/20 09:04:05;;;;;;;16.35;3.03;;;5.70;89.10;;;;;;5048098;28;20071;-75
2021/12/20 09:06:32;;;;;;;15.38;2.97;;;5.70;89.20;;;;;;5051627;28;20077;-79
2021/12/20 09:08:58;;;;;;;12.40;2.25;;;5.70;89.20;;;;;;5036407;28;20079;-74
2021/12/20 09:11:28;;;;;;;7.22;1.80;;;5.70;89.40;;;;;;5051015;28;20541;-74
2021/12/20 09:13:54;;;;;;;11.65;2.38;;;5.70;89.40;;;;;;5047496;28;20080;-79
2021/12/20 09:16:20;;;;;;;17.98;2.35;;;5.70;89.40;;;;;;5051767;28;20083;-79
2021/12/20 09:18:46;;;;;;;20.55;2.10;;;5.70;89.50;;;;;;5057438;28;20491;-79
2021/12/20 09:21:12;;;;;;;11.48;2.75;;;5.70;89.60;;;;;;5050479;28;20118;-79
2021/12/20 09:23:40;;;;;;;20.60;2.63;;;5.80;89.60;;;;;;5035466;28;20096;-78
2021/12/20 09:26:06;;;;;;;11.98;3.05;;;5.80;89.60;;;;;;5036432;28;20486;-74
2021/12/20 09:28:32;;;;;;;18.35;3.28;;;5.80;89.50;;;;;;5043059;28;20112;-78
2021/12/20 09:30:58;;;;;;;11.82;2.20;;;5.80;89.40;;;;;;5052659;28;20101;-78
2021/12/20 09:33:24;;;;;;;17.50;2.60;;;5.90;89.30;;;;;;5041739;28;20071;-75
2021/12/20 09:35:51;;;;;;;22.17;3.03;;;5.90;89.20;;;;;;5018542;28;20175;-74
2021/12/20 09:38:19;;;;;;;18.80;2.75;;;5.90;89.10;;;;;;5051771;28;20070;-78
2021/12/20 09:43:54;;;;;;;26.83;3.05;;;5.90;89.20;;;;;;5050175;28;20089;-78
2021/12/20 09:46:24;;;;;;;18.17;2.50;;;6.00;89.40;;;;;;5050730;28;20065;-78
2021/12/20 09:48:50;;;;;;;17.88;3.00;;;6.10;89.30;;;;;;5042319;28;20060;-78
2021/12/20 09:51:17;;;;;;;26.10;3.25;;;6.20;89.30;;;;;;5047683;28;20532;-78
2021/12/20 09:53:43;;;;;;;27.25;3.50;;;6.20;89.80;;;;;;5048762;28;20577;-79
2021/12/20 09:56:09;;;;;;;20.95;3.65;;;6.30;89.10;;;;;;5045826;28;20095;-75
2021/12/20 09:58:38;;;;;;;21.17;3.30;;;6.40;89.30;;;;;;5065172;28;20102;-75
2021/12/20 10:01:06;;;;;;;25.55;3.50;;;6.40;88.70;;;;;;5048264;28;20070;-75
2021/12/20 10:03:33;;;;;;;41.80;6.05;;;6.50;88.60;;;;;;5056099;28;20621;-75
2021/12/20 10:05:59;;;;;;;29.80;4.07;;;6.40;88.50;;;;;;5048073;28;20069;-78
2021/12/20 10:08:32;;;;;;;28.45;4.40;;;6.40;88.50;;;;;;5050758;28;20153;-78
2021/12/20 10:11:02;;;;;;;27.40;3.78;;;6.40;88.60;;;;;;5059586;28;20404;-78
2021/12/20 10:13:34;;;;;;;26.75;3.30;;;6.50;88.70;;;;;;5049452;28;20056;-78
2021/12/20 10:16:00;;;;;;;;;;;6.50;88.60;;;;;;5045678;28;20135;-75
2021/12/20 10:18:27;;;;;;;27.80;3.47;;;6.50;88.50;;;;;;5049009;28;19945;-78
2021/12/20 10:20:56;;;;;;;27.70;3.40;;;6.50;88.50;;;;;;5050753;28;20070;-78
2021/12/20 10:23:33;;;;;;;21.25;3.45;;;6.60;88.70;;;;;;5045018;28;20884;-78
2021/12/20 10:26:14;;;;;;;34.88;3.92;;;6.70;88.80;;;;;;5046279;28;20065;-78
2021/12/20 10:28:40;;;;;;;26.20;4.00;;;6.70;88.80;;;;;;5052350;28;20414;-78
2021/12/20 10:31:27;;;;;;;29.30;3.58;;;6.80;88.50;;;;;;5051039;28;20073;-78
2021/12/20 10:34:00;;;;;;;25.08;4.60;;;6.80;88.30;;;;;;5044319;28;20060;-78
2021/12/20 10:36:26;;;;;;;30.00;4.57;;;6.80;88.30;;;;;;5051659;28;20092;-78
2021/12/20 10:38:56;;;;;;;29.58;3.65;;;6.80;88.60;;;;;;5043256;28;20952;-78
2021/12/20 10:41:33;;;;;;;30.73;4.00;;;6.90;88.70;;;;;;5052826;28;20052;-78
2021/12/20 10:44:03;;;;;;;35.28;4.75;;;7.00;88.60;;;;;;5045903;28;20423;-78
2021/12/20 10:46:32;;;;;;;26.20;4.60;;;7.10;88.50;;;;;;5051507;28;20059;-78
2021/12/20 10:49:05;;;;;;;29.35;4.03;;;7.10;89.00;;;;;;5080751;28;20550;-78
2021/12/20 10:51:38;;;;;;;29.67;4.53;;;7.10;88.10;;;;;;5044362;28;20056;-78
2021/12/20 10:54:10;;;;;;;33.95;4.43;;;7.20;88.30;;;;;;5049081;28;20044;-76
2021/12/20 10:56:38;;;;;;;26.50;3.83;;;7.20;88.10;;;;;;5046144;28;20081;-75
2021/12/20 10:59:11;;;;;;;43.53;4.28;;;7.20;88.10;;;;;;5046746;28;20048;-78
2021/12/20 11:04:27;;;;;;;31.60;3.65;;;7.30;88.20;;;;;;5051109;28;20054;-78
2021/12/20 11:09:46;;;;;;;39.72;4.45;;;7.40;87.90;;;;;;5049556;28;20141;-78
2021/12/20 11:12:15;;;;;;;42.13;5.10;;;7.50;87.90;;;;;;5046289;28;20081;-78
2021/12/20 11:14:45;;;;;;;32.65;3.60;;;7.60;87.60;;;;;;5033684;28;20066;-78
2021/12/20 11:17:14;;;;;;;32.00;3.83;;;7.50;87.50;;;;;;5051075;28;20074;-78
2021/12/20 11:19:42;;;;;;;28.27;4.28;;;7.50;87.70;;;;;;5050597;28;20130;-75
2021/12/20 11:22:13;;;;;;;45.42;6.20;;;7.60;87.70;;;;;;5044985;28;20504;-74
2021/12/20 11:24:49;;;;;;;32.40;4.43;;;7.60;87.40;;;;;;5048954;28;20087;-75
2021/12/20 11:27:25;;;;;;;32.67;4.22;;;7.60;87.30;;;;;;5047046;28;20106;-78
2021/12/20 11:29:54;;;;;;;41.45;4.72;;;7.60;87.20;;;;;;5051993;28;20063;-78
2021/12/20 11:32:22;;;;;;;56.28;5.95;;;7.60;87.20;;;;;;5049007;28;20114;-78
2021/12/20 11:34:48;;;;;;;45.05;5.88;;;7.60;87.00;;;;;;5046544;28;20065;-75
2021/12/20 11:37:17;;;;;;;42.45;5.13;;;7.60;86.80;;;;;;5049336;28;20164;-75
2021/12/20 11:39:43;;;;;;;34.28;4.05;;;7.60;86.80;;;;;;5046958;28;20053;-75
2021/12/20 11:42:12;;;;;;;28.80;4.38;;;7.60;86.90;;;;;;5048054;28;20079;-78
2021/12/20 11:44:40;;;;;;;36.05;4.70;;;7.60;86.70;;;;;;5043946;28;20061;-79
2021/12/20 11:47:14;;;;;;;28.08;3.88;;;7.60;86.40;;;;;;5043161;28;20065;-78
2021/12/20 11:49:40;;;;;;;31.38;5.78;;;7.60;86.20;;;;;;5045817;28;20063;-78
2021/12/20 11:52:17;;;;;;;36.33;5.35;;;7.50;86.00;;;;;;5046176;28;20152;-78
2021/12/20 11:54:53;;;;;;;20.65;2.58;;;7.50;85.90;;;;;;5046663;28;20088;-78
2021/12/20 11:57:28;;;;;;;38.97;4.15;;;7.50;85.70;;;;;;5044318;28;20431;-79
2021/12/20 11:59:56;;;;;;;28.83;4.65;;;7.50;85.70;;;;;;5048894;28;20058;-79
2021/12/20 12:02:26;;;;;;;30.98;4.00;;;7.50;85.50;;;;;;5046971;28;20550;-79
2021/12/20 12:05:06;;;;;;;19.13;3.88;;;7.50;85.20;;;;;;5052185;28;20065;-75
2021/12/20 12:07:38;;;;;;;33.67;4.20;;;7.50;84.80;;;;;;5050450;28;20061;-75
2021/12/20 12:10:06;;;;;;;20.48;4.60;;;7.50;84.80;;;;;;5051071;28;20087;-78
2021/12/20 12:12:39;;;;;;;23.40;3.15;;;7.50;84.80;;;;;;5052226;28;20053;-75
2021/12/20 12:15:21;;;;;;;21.05;2.92;;;7.50;84.70;;;;;;5050894;28;20055;-75
2021/12/20 12:18:03;;;;;;;20.20;2.92;;;7.50;83.90;;;;;;5042960;28;20051;-79
2021/12/20 12:20:37;;;;;;;18.88;3.60;;;7.50;84.20;;;;;;5053789;28;20060;-74
2021/12/20 12:23:11;;;;;;;32.72;2.95;;;7.50;83.30;;;;;;5050337;28;20080;-74
2021/12/20 12:25:41;;;;;;;35.63;3.45;;;7.50;83.10;;;;;;5053661;28;20053;-75
2021/12/20 12:28:08;;;;;;;14.93;2.30;;;7.40;83.10;;;;;;5053002;28;20499;-78
2021/12/20 12:30:34;;;;;;;23.85;2.13;;;7.40;82.90;;;;;;5035283;28;20055;-79
2021/12/20 12:33:03;;;;;;;27.13;2.80;;;7.40;82.50;;;;;;5054931;28;20062;-79
2021/12/20 12:35:42;;;;;;;13.07;1.65;;;7.40;82.30;;;;;;5056440;28;20063;-78
2021/12/20 12:38:26;;;;;;;24.52;3.15;;;7.40;81.80;;;;;;5050563;28;20045;-79
2021/12/20 12:41:12;;;;;;;22.52;3.22;;;7.40;81.50;;;;;;5048336;28;20403;-79
2021/12/20 12:43:58;;;;;;;11.77;2.13;;;7.40;81.10;;;;;;5051330;28;20063;-75
2021/12/20 12:46:36;;;;;;;10.98;1.90;;;7.30;80.40;;;;;;5045306;28;20052;-75
2021/12/20 12:49:20;;;;;;;14.15;2.20;;;7.30;80.20;;;;;;5045834;28;20163;-78
2021/12/20 12:52:05;;;;;;;17.88;2.10;;;7.20;79.80;;;;;;5053656;28;20060;-75
2021/12/20 12:54:42;;;;;;;16.55;2.00;;;7.20;79.70;;;;;;5049268;28;20602;-78
2021/12/20 12:57:11;;;;;;;12.27;1.75;;;7.20;79.40;;;;;;5047981;28;20098;-78
2021/12/20 12:59:55;;;;;;;10.98;1.83;;;7.10;78.60;;;;;;5051322;28;20513;-79
2021/12/20 13:02:23;;;;;;;11.95;1.90;;;7.10;78.00;;;;;;5051927;28;20126;-75
2021/12/20 13:04:53;;;;;;;9.30;1.83;;;7.10;78.40;;;;;;5057355;28;20060;-78
2021/12/20 13:07:21;;;;;;;12.60;1.52;;;7.00;77.70;;;;;;5052291;28;20061;-78
2021/12/20 13:09:48;;;;;;;9.95;1.20;;;7.00;77.60;;;;;;5049285;28;20114;-78